createdAt,value
2016-12-19T00:00:07.024Z,1025.76
2016-12-19T00:01:07.006Z,1025.74
2016-12-19T00:02:06.991Z,1025.79
2016-12-19T00:03:06.981Z,1025.73
2016-12-19T00:04:06.955Z,1025.8
2016-12-19T00:05:06.944Z,1025.79
2016-12-19T00:06:06.924Z,1025.77
2016-12-19T00:07:06.908Z,1025.73
2016-12-19T00:08:06.889Z,1025.73
2016-12-19T00:09:06.878Z,1025.76
2016-12-19T00:10:06.862Z,1025.8
2016-12-19T00:11:06.841Z,1025.85
2016-12-19T00:12:06.825Z,1025.82
2016-12-19T00:13:06.809Z,1025.83
2016-12-19T00:14:06.793Z,1025.85
2016-12-19T00:15:06.777Z,1025.87
2016-12-19T00:16:06.761Z,1025.86
2016-12-19T00:17:06.744Z,1025.87
2016-12-19T00:18:06.732Z,1025.85
2016-12-19T00:19:06.711Z,1025.87
2016-12-19T00:20:06.704Z,1025.85
2016-12-19T00:21:06.679Z,1025.92
2016-12-19T00:22:06.668Z,1025.85
2016-12-19T00:23:06.646Z,1025.87
2016-12-19T00:24:06.633Z,1025.9
2016-12-19T00:25:06.612Z,1025.85
2016-12-19T00:26:06.597Z,1025.91
2016-12-19T00:27:06.580Z,1025.86
2016-12-19T00:28:06.565Z,1025.84
2016-12-19T00:29:06.549Z,1025.85
2016-12-19T00:30:06.539Z,1025.81
2016-12-19T00:31:06.513Z,1025.85
2016-12-19T00:32:06.501Z,1025.91
2016-12-19T00:33:06.481Z,1025.89
2016-12-19T00:34:06.465Z,1025.94
2016-12-19T00:35:06.448Z,1025.93
2016-12-19T00:36:06.432Z,1025.93
2016-12-19T00:37:06.415Z,1025.92
2016-12-19T00:38:06.398Z,1025.9
2016-12-19T00:39:06.383Z,1025.91
2016-12-19T00:40:06.366Z,1025.93
2016-12-19T00:41:06.352Z,1025.92
2016-12-19T00:42:06.334Z,1025.95
2016-12-19T00:43:06.318Z,1025.94
2016-12-19T00:44:06.303Z,1025.93
2016-12-19T00:45:06.284Z,1025.87
2016-12-19T00:46:06.266Z,1025.85
2016-12-19T00:47:06.251Z,1025.87
2016-12-19T00:48:06.234Z,1025.84
2016-12-19T00:49:06.221Z,1025.83
2016-12-19T00:50:06.202Z,1025.85
2016-12-19T00:51:06.184Z,1025.84
2016-12-19T00:52:06.169Z,1025.83
2016-12-19T00:53:06.154Z,1025.81
2016-12-19T00:54:06.137Z,1025.8
2016-12-19T00:55:06.118Z,1025.73
2016-12-19T00:56:06.101Z,1025.73
2016-12-19T00:57:06.085Z,1025.74
2016-12-19T00:58:06.074Z,1025.74
2016-12-19T00:59:06.053Z,1025.81
2016-12-19T01:00:06.037Z,1025.78
2016-12-19T01:01:06.022Z,1025.75
2016-12-19T01:02:06.003Z,1025.79
2016-12-19T01:03:05.988Z,1025.77
2016-12-19T01:04:05.969Z,1025.77
2016-12-19T01:05:05.953Z,1025.75
2016-12-19T01:06:05.936Z,1025.75
2016-12-19T01:07:05.925Z,1025.71
2016-12-19T01:08:05.904Z,1025.73
2016-12-19T01:09:05.891Z,1025.68
2016-12-19T01:10:05.871Z,1025.67
2016-12-19T01:11:05.854Z,1025.64
2016-12-19T01:12:05.837Z,1025.69
2016-12-19T01:13:05.822Z,1025.67
2016-12-19T01:14:05.804Z,1025.7
2016-12-19T01:15:05.787Z,1025.68
2016-12-19T01:16:05.772Z,1025.68
2016-12-19T01:17:05.757Z,1025.69
2016-12-19T01:18:05.740Z,1025.64
2016-12-19T01:19:05.726Z,1025.6
2016-12-19T01:20:05.705Z,1025.59
2016-12-19T01:21:05.693Z,1025.59
2016-12-19T01:22:05.673Z,1025.57
2016-12-19T01:23:05.656Z,1025.62
2016-12-19T01:24:05.638Z,1025.52
2016-12-19T01:25:05.623Z,1025.56
2016-12-19T01:26:05.606Z,1025.56
2016-12-19T01:27:05.592Z,1025.55
2016-12-19T01:28:05.573Z,1025.58
2016-12-19T01:29:05.556Z,1025.53
2016-12-19T01:30:05.539Z,1025.56
2016-12-19T01:31:05.524Z,1025.58
2016-12-19T01:32:05.509Z,1025.55
2016-12-19T01:33:05.489Z,1025.61
2016-12-19T01:34:05.472Z,1025.59
2016-12-19T01:35:05.457Z,1025.59
2016-12-19T01:36:05.439Z,1025.65
2016-12-19T01:37:05.424Z,1025.67
2016-12-19T01:38:05.407Z,1025.64
2016-12-19T01:39:05.390Z,1025.64
2016-12-19T01:40:05.411Z,1025.62
2016-12-19T01:41:05.358Z,1025.62
2016-12-19T01:42:05.340Z,1025.6
2016-12-19T01:43:05.325Z,1025.56
2016-12-19T01:44:05.306Z,1025.57
2016-12-19T01:45:05.292Z,1025.56
2016-12-19T01:46:05.271Z,1025.57
2016-12-19T01:47:05.263Z,1025.56
2016-12-19T01:48:05.241Z,1025.56
2016-12-19T01:49:05.223Z,1025.56
2016-12-19T01:50:05.214Z,1025.54
2016-12-19T01:51:05.194Z,1025.6
2016-12-19T01:52:05.179Z,1025.61
2016-12-19T01:53:05.159Z,1025.6
2016-12-19T01:54:05.142Z,1025.54
2016-12-19T01:55:05.125Z,1025.57
2016-12-19T01:56:05.114Z,1025.53
2016-12-19T01:57:05.092Z,1025.58
2016-12-19T01:58:05.076Z,1025.57
2016-12-19T01:59:05.059Z,1025.61
2016-12-19T02:00:05.048Z,1025.59
2016-12-19T02:01:05.025Z,1025.58
2016-12-19T02:02:05.008Z,1025.56
2016-12-19T02:03:04.991Z,1025.55
2016-12-19T02:04:04.975Z,1025.61
2016-12-19T02:05:04.961Z,1025.55
2016-12-19T02:06:04.937Z,1025.59
2016-12-19T02:07:04.925Z,1025.57
2016-12-19T02:08:04.910Z,1025.56
2016-12-19T02:09:04.891Z,1025.54
2016-12-19T02:10:04.879Z,1025.52
2016-12-19T02:11:04.859Z,1025.5
2016-12-19T02:12:04.844Z,1025.45
2016-12-19T02:13:04.826Z,1025.5
2016-12-19T02:14:04.807Z,1025.48
2016-12-19T02:15:04.792Z,1025.49
2016-12-19T02:16:04.774Z,1025.51
2016-12-19T02:17:04.760Z,1025.46
2016-12-19T02:18:04.740Z,1025.47
2016-12-19T02:19:04.725Z,1025.46
2016-12-19T02:20:04.710Z,1025.47
2016-12-19T02:21:04.691Z,1025.47
2016-12-19T02:22:04.675Z,1025.42
2016-12-19T02:23:04.658Z,1025.39
2016-12-19T02:24:04.639Z,1025.37
2016-12-19T02:25:04.624Z,1025.36
2016-12-19T02:26:04.609Z,1025.37
2016-12-19T02:27:04.591Z,1025.34
2016-12-19T02:28:04.574Z,1025.31
2016-12-19T02:29:04.555Z,1025.26
2016-12-19T02:30:04.545Z,1025.22
2016-12-19T02:31:04.524Z,1025.26
2016-12-19T02:32:04.507Z,1025.26
2016-12-19T02:33:04.492Z,1025.32
2016-12-19T02:34:04.475Z,1025.34
2016-12-19T02:35:04.460Z,1025.33
2016-12-19T02:36:04.440Z,1025.31
2016-12-19T02:37:04.423Z,1025.34
2016-12-19T02:38:04.408Z,1025.4
2016-12-19T02:39:04.391Z,1025.37
2016-12-19T02:40:04.373Z,1025.42
2016-12-19T02:41:04.356Z,1025.34
2016-12-19T02:42:04.341Z,1025.35
2016-12-19T02:43:04.324Z,1025.34
2016-12-19T02:44:04.311Z,1025.3
2016-12-19T02:45:04.289Z,1025.28
2016-12-19T02:46:04.276Z,1025.28
2016-12-19T02:47:04.259Z,1025.29
2016-12-19T02:48:04.240Z,1025.37
2016-12-19T02:49:04.222Z,1025.29
2016-12-19T02:50:04.206Z,1025.35
2016-12-19T02:51:04.190Z,1025.28
2016-12-19T02:52:04.173Z,1025.28
2016-12-19T02:53:04.156Z,1025.3
2016-12-19T02:54:04.139Z,1025.27
2016-12-19T02:55:04.121Z,1025.3
2016-12-19T02:56:04.106Z,1025.3
2016-12-19T02:57:04.089Z,1025.29
2016-12-19T02:58:04.070Z,1025.3
2016-12-19T02:59:04.054Z,1025.29
2016-12-19T03:00:04.041Z,1025.27
2016-12-19T03:01:04.022Z,1025.29
2016-12-19T03:02:04.005Z,1025.3
2016-12-19T03:03:03.985Z,1025.3
2016-12-19T03:04:03.972Z,1025.23
2016-12-19T03:05:03.955Z,1025.27
2016-12-19T03:06:03.938Z,1025.24
2016-12-19T03:07:03.921Z,1025.26
2016-12-19T03:08:03.904Z,1025.28
2016-12-19T03:09:03.887Z,1025.25
2016-12-19T03:10:03.871Z,1025.23
2016-12-19T03:11:03.854Z,1025.26
2016-12-19T03:12:03.836Z,1025.27
2016-12-19T03:13:03.819Z,1025.27
2016-12-19T03:14:03.802Z,1025.3
2016-12-19T03:15:03.787Z,1025.31
2016-12-19T03:16:03.770Z,1025.3
2016-12-19T03:17:03.752Z,1025.29
2016-12-19T03:18:03.741Z,1025.26
2016-12-19T03:19:03.718Z,1025.27
2016-12-19T03:20:03.702Z,1025.27
2016-12-19T03:21:03.687Z,1025.3
2016-12-19T03:22:03.668Z,1025.26
2016-12-19T03:23:03.651Z,1025.25
2016-12-19T03:24:03.636Z,1025.26
2016-12-19T03:25:03.618Z,1025.21
2016-12-19T03:26:03.602Z,1025.22
2016-12-19T03:27:03.586Z,1025.25
2016-12-19T03:28:03.569Z,1025.23
2016-12-19T03:29:03.552Z,1025.21
2016-12-19T03:30:03.535Z,1025.21
2016-12-19T03:31:03.518Z,1025.21
2016-12-19T03:32:03.502Z,1025.18
2016-12-19T03:33:03.485Z,1025.21
2016-12-19T03:34:03.467Z,1025.2
2016-12-19T03:35:03.450Z,1025.21
2016-12-19T03:36:03.433Z,1025.18
2016-12-19T03:37:03.416Z,1025.19
2016-12-19T03:38:03.400Z,1025.2
2016-12-19T03:39:03.385Z,1025.22
2016-12-19T03:40:03.366Z,1025.15
2016-12-19T03:41:03.348Z,1025.15
2016-12-19T03:42:03.331Z,1025.12
2016-12-19T03:43:03.319Z,1025.08
2016-12-19T03:44:03.299Z,1025.03
2016-12-19T03:45:03.282Z,1025.07
2016-12-19T03:46:03.263Z,1025.08
2016-12-19T03:47:03.247Z,1025.06
2016-12-19T03:48:03.234Z,1025.05
2016-12-19T03:49:03.215Z,1025.06
2016-12-19T03:50:03.198Z,1025.03
2016-12-19T03:51:03.180Z,1024.99
2016-12-19T03:52:03.165Z,1024.99
2016-12-19T03:53:03.144Z,1024.95
2016-12-19T03:54:03.131Z,1024.92
2016-12-19T03:55:03.115Z,1024.88
2016-12-19T03:56:03.096Z,1024.86
2016-12-19T03:57:03.084Z,1024.88
2016-12-19T03:58:03.066Z,1024.97
2016-12-19T03:59:03.045Z,1024.91
2016-12-19T04:00:03.030Z,1024.97
2016-12-19T04:01:03.012Z,1024.89
2016-12-19T04:02:02.995Z,1024.95
2016-12-19T04:03:02.979Z,1024.98
2016-12-19T04:04:02.961Z,1024.95
2016-12-19T04:05:02.949Z,1024.93
2016-12-19T04:06:02.929Z,1024.95
2016-12-19T04:07:02.911Z,1024.94
2016-12-19T04:08:02.894Z,1024.94
2016-12-19T04:09:02.875Z,1024.9
2016-12-19T04:10:02.859Z,1024.85
2016-12-19T04:11:02.844Z,1024.84
2016-12-19T04:12:02.827Z,1024.83
2016-12-19T04:13:02.809Z,1024.82
2016-12-19T04:14:02.792Z,1024.77
2016-12-19T04:15:02.775Z,1024.8
2016-12-19T04:16:02.758Z,1024.76
2016-12-19T04:17:02.743Z,1024.74
2016-12-19T04:18:02.726Z,1024.8
2016-12-19T04:19:02.708Z,1024.77
2016-12-19T04:20:02.691Z,1024.77
2016-12-19T04:21:02.674Z,1024.76
2016-12-19T04:22:02.657Z,1024.77
2016-12-19T04:23:02.640Z,1024.78
2016-12-19T04:24:02.622Z,1024.74
2016-12-19T04:25:02.606Z,1024.79
2016-12-19T04:26:02.590Z,1024.76
2016-12-19T04:27:02.573Z,1024.79
2016-12-19T04:28:02.555Z,1024.79
2016-12-19T04:29:02.538Z,1024.75
2016-12-19T04:30:02.521Z,1024.78
2016-12-19T04:31:02.506Z,1024.79
2016-12-19T04:32:02.487Z,1024.8
2016-12-19T04:33:02.472Z,1024.79
2016-12-19T04:34:02.454Z,1024.79
2016-12-19T04:35:02.437Z,1024.78
2016-12-19T04:36:02.420Z,1024.84
2016-12-19T04:37:02.402Z,1024.82
2016-12-19T04:38:02.387Z,1024.83
2016-12-19T04:39:02.370Z,1024.86
2016-12-19T04:40:02.353Z,1024.9
2016-12-19T04:41:02.336Z,1024.89
2016-12-19T04:42:02.319Z,1024.89
2016-12-19T04:43:02.305Z,1024.89
2016-12-19T04:44:02.284Z,1024.85
2016-12-19T04:45:02.267Z,1024.93
2016-12-19T04:46:02.252Z,1024.91
2016-12-19T04:47:02.233Z,1024.94
2016-12-19T04:48:02.217Z,1024.9
2016-12-19T04:49:02.200Z,1024.91
2016-12-19T04:50:02.183Z,1024.89
2016-12-19T04:51:02.166Z,1024.88
2016-12-19T04:52:02.149Z,1024.84
2016-12-19T04:53:02.134Z,1024.85
2016-12-19T04:54:02.114Z,1024.74
2016-12-19T04:55:02.099Z,1024.75
2016-12-19T04:56:02.081Z,1024.73
2016-12-19T04:57:02.066Z,1024.72
2016-12-19T04:58:02.047Z,1024.75
2016-12-19T04:59:02.030Z,1024.74
2016-12-19T05:00:02.013Z,1024.69
2016-12-19T05:01:01.998Z,1024.69
2016-12-19T05:02:01.980Z,1024.67
2016-12-19T05:03:01.963Z,1024.67
2016-12-19T05:04:01.948Z,1024.65
2016-12-19T05:05:01.929Z,1024.63
2016-12-19T05:06:01.913Z,1024.59
2016-12-19T05:07:01.896Z,1024.6
2016-12-19T05:08:01.879Z,1024.54
2016-12-19T05:09:01.862Z,1024.55
2016-12-19T05:10:01.845Z,1024.54
2016-12-19T05:11:01.828Z,1024.48
2016-12-19T05:12:01.812Z,1024.47
2016-12-19T05:13:01.793Z,1024.47
2016-12-19T05:14:01.778Z,1024.44
2016-12-19T05:15:01.761Z,1024.39
2016-12-19T05:16:01.744Z,1024.36
2016-12-19T05:17:01.726Z,1024.35
2016-12-19T05:18:01.709Z,1024.37
2016-12-19T05:19:01.694Z,1024.37
2016-12-19T05:20:01.682Z,1024.32
2016-12-19T05:21:01.659Z,1024.35
2016-12-19T05:22:01.642Z,1024.34
2016-12-19T05:23:01.625Z,1024.4
2016-12-19T05:24:01.608Z,1024.41
2016-12-19T05:25:01.594Z,1024.32
2016-12-19T05:26:01.575Z,1024.3
2016-12-19T05:27:01.558Z,1024.25
2016-12-19T05:28:01.541Z,1024.23
2016-12-19T05:29:01.524Z,1024.2
2016-12-19T05:30:01.509Z,1024.26
2016-12-19T05:31:01.491Z,1024.32
2016-12-19T05:32:01.474Z,1024.38
2016-12-19T05:33:01.457Z,1024.41
2016-12-19T05:34:01.440Z,1024.36
2016-12-19T05:35:01.425Z,1024.38
2016-12-19T05:36:01.411Z,1024.43
2016-12-19T05:37:01.390Z,1024.42
2016-12-19T05:38:01.373Z,1024.39
2016-12-19T05:39:01.357Z,1024.4
2016-12-19T05:40:01.344Z,1024.44
2016-12-19T05:41:01.323Z,1024.43
2016-12-19T05:42:01.306Z,1024.42
2016-12-19T05:43:01.291Z,1024.39
2016-12-19T05:44:01.274Z,1024.37
2016-12-19T05:45:01.257Z,1024.38
2016-12-19T05:46:01.241Z,1024.41
2016-12-19T05:47:01.226Z,1024.34
2016-12-19T05:48:01.211Z,1024.37
2016-12-19T05:49:01.189Z,1024.32
2016-12-19T05:50:01.174Z,1024.25
2016-12-19T05:51:01.157Z,1024.22
2016-12-19T05:52:01.142Z,1024.23
2016-12-19T05:53:01.122Z,1024.23
2016-12-19T05:54:01.110Z,1024.24
2016-12-19T05:55:01.091Z,1024.22
2016-12-19T05:56:01.072Z,1024.28
2016-12-19T05:57:01.057Z,1024.25
2016-12-19T05:58:01.040Z,1024.3
2016-12-19T05:59:01.020Z,1024.27
2016-12-19T06:00:01.007Z,1024.31
2016-12-19T06:01:00.990Z,1024.28
2016-12-19T06:02:00.975Z,1024.29
2016-12-19T06:03:00.957Z,1024.28
2016-12-19T06:04:00.940Z,1024.28
2016-12-19T06:05:00.928Z,1024.3
2016-12-19T06:06:00.907Z,1024.28
2016-12-19T06:07:00.894Z,1024.29
2016-12-19T06:08:00.873Z,1024.31
2016-12-19T06:09:00.858Z,1024.33
2016-12-19T06:10:00.840Z,1024.31
2016-12-19T06:11:00.823Z,1024.25
2016-12-19T06:12:00.806Z,1024.23
2016-12-19T06:13:00.790Z,1024.2
2016-12-19T06:14:00.775Z,1024.24
2016-12-19T06:15:00.758Z,1024.22
2016-12-19T06:16:00.740Z,1024.21
2016-12-19T06:17:00.725Z,1024.18
2016-12-19T06:18:00.708Z,1024.12
2016-12-19T06:19:00.690Z,1024.13
2016-12-19T06:20:00.676Z,1024.11
2016-12-19T06:21:00.658Z,1024.17
2016-12-19T06:22:00.641Z,1024.22
2016-12-19T06:23:00.626Z,1024.16
2016-12-19T06:24:00.609Z,1024.18
2016-12-19T06:25:00.591Z,1024.17
2016-12-19T06:26:00.576Z,1024.21
2016-12-19T06:27:00.559Z,1024.23
2016-12-19T06:28:00.544Z,1024.25
2016-12-19T06:29:00.524Z,1024.24
2016-12-19T06:30:00.511Z,1024.17
2016-12-19T06:31:00.492Z,1024.17
2016-12-19T06:32:00.487Z,1024.11
2016-12-19T06:33:00.459Z,1024.08
2016-12-19T06:34:00.447Z,1024.04
2016-12-19T06:35:00.427Z,1024.01
2016-12-19T06:36:00.410Z,1024.06
2016-12-19T06:37:00.395Z,1024.12
2016-12-19T06:38:00.377Z,1024.1
2016-12-19T06:39:00.362Z,1024.13
2016-12-19T06:40:00.345Z,1024.17
2016-12-19T06:41:00.328Z,1024.17
2016-12-19T06:42:00.313Z,1024.19
2016-12-19T06:43:00.295Z,1024.21
2016-12-19T06:44:00.278Z,1024.19
2016-12-19T06:45:00.263Z,1024.2
2016-12-19T06:46:00.248Z,1024.18
2016-12-19T06:47:00.230Z,1024.23
2016-12-19T06:48:00.213Z,1024.23
2016-12-19T06:49:00.196Z,1024.22
2016-12-19T06:50:00.181Z,1024.2
2016-12-19T06:51:00.164Z,1024.27
2016-12-19T06:52:00.146Z,1024.17
2016-12-19T06:53:00.131Z,1024.16
2016-12-19T06:54:00.114Z,1024.13
2016-12-19T06:55:00.097Z,1024.12
2016-12-19T06:56:00.081Z,1024.14
2016-12-19T06:57:00.064Z,1024.11
2016-12-19T06:58:00.047Z,1024.17
2016-12-19T06:59:00.032Z,1024.21
2016-12-19T07:00:00.015Z,1024.21
2016-12-19T07:01:00.003Z,1024.23
2016-12-19T07:01:59.982Z,1024.23
2016-12-19T07:02:59.965Z,1024.15
2016-12-19T07:03:59.948Z,1024.13
2016-12-19T07:04:59.934Z,1024.05
2016-12-19T07:05:59.927Z,1024.01
2016-12-19T07:06:59.900Z,1023.97
2016-12-19T07:07:59.885Z,1023.93
2016-12-19T07:08:59.868Z,1023.92
2016-12-19T07:09:59.854Z,1023.98
2016-12-19T07:10:59.835Z,1024.05
2016-12-19T07:11:59.818Z,1024.05
2016-12-19T07:12:59.801Z,1024.14
2016-12-19T07:13:59.786Z,1024.16
2016-12-19T07:14:59.769Z,1024.14
2016-12-19T07:15:59.755Z,1024.09
2016-12-19T07:16:59.736Z,1024.05
2016-12-19T07:17:59.721Z,1024.04
2016-12-19T07:18:59.704Z,1024.03
2016-12-19T07:19:59.690Z,1024
2016-12-19T07:20:59.672Z,1024.03
2016-12-19T07:21:59.654Z,1024.01
2016-12-19T07:22:59.639Z,1024.03
2016-12-19T07:23:59.622Z,1024.02
2016-12-19T07:24:59.609Z,1024.02
2016-12-19T07:25:59.590Z,1024.05
2016-12-19T07:26:59.577Z,1024.01
2016-12-19T07:27:59.557Z,1024.08
2016-12-19T07:28:59.540Z,1024.03
2016-12-19T07:29:59.528Z,1024.03
2016-12-19T07:30:59.507Z,1024.02
2016-12-19T07:31:59.490Z,1024.03
2016-12-19T07:32:59.475Z,1024.02
2016-12-19T07:33:59.459Z,1024.06
2016-12-19T07:34:59.443Z,1024.01
2016-12-19T07:35:59.425Z,1024.04
2016-12-19T07:36:59.410Z,1024.02
2016-12-19T07:37:59.393Z,1024.05
2016-12-19T07:38:59.376Z,1024.01
2016-12-19T07:39:59.361Z,1024.02
2016-12-19T07:40:59.344Z,1024.02
2016-12-19T07:41:59.329Z,1024.04
2016-12-19T07:42:59.316Z,1024.04
2016-12-19T07:43:59.296Z,1024.01
2016-12-19T07:44:59.279Z,1024.1
2016-12-19T07:45:59.262Z,1024.05
2016-12-19T07:46:59.246Z,1024.15
2016-12-19T07:47:59.229Z,1024.11
2016-12-19T07:48:59.214Z,1024.13
2016-12-19T07:49:59.197Z,1024.11
2016-12-19T07:50:59.181Z,1024.12
2016-12-19T07:51:59.166Z,1024.16
2016-12-19T07:52:59.147Z,1024.15
2016-12-19T07:53:59.132Z,1024.15
2016-12-19T07:54:59.117Z,1024.15
2016-12-19T07:55:59.099Z,1024.17
2016-12-19T07:56:59.082Z,1024.12
2016-12-19T07:57:59.067Z,1024.11
2016-12-19T07:58:59.050Z,1024.14
2016-12-19T07:59:59.035Z,1024.15
2016-12-19T08:00:59.018Z,1024.17
2016-12-19T08:01:59.002Z,1024.17
2016-12-19T08:02:58.985Z,1024.15
2016-12-19T08:03:58.968Z,1024.16
2016-12-19T08:04:58.953Z,1024.18
2016-12-19T08:05:58.937Z,1024.19
2016-12-19T08:06:58.922Z,1024.14
2016-12-19T08:07:58.903Z,1024.17
2016-12-19T08:08:58.887Z,1024.12
2016-12-19T08:09:58.873Z,1024.12
2016-12-19T08:10:58.855Z,1024.09
2016-12-19T08:11:58.838Z,1024.09
2016-12-19T08:12:58.823Z,1024.08
2016-12-19T08:13:58.808Z,1024.1
2016-12-19T08:14:58.791Z,1024.12
2016-12-19T08:15:58.777Z,1024.16
2016-12-19T08:16:58.761Z,1024.15
2016-12-19T08:17:58.743Z,1024.18
2016-12-19T08:18:58.727Z,1024.13
2016-12-19T08:19:58.711Z,1024.13
2016-12-19T08:20:58.697Z,1024.18
2016-12-19T08:21:58.677Z,1024.16
2016-12-19T08:22:58.663Z,1024.15
2016-12-19T08:23:58.646Z,1024.13
2016-12-19T08:24:58.630Z,1024.17
2016-12-19T08:25:58.614Z,1024.17
2016-12-19T08:26:58.600Z,1024.22
2016-12-19T08:27:58.581Z,1024.21
2016-12-19T08:28:58.566Z,1024.21
2016-12-19T08:29:58.546Z,1024.25
2016-12-19T08:30:58.531Z,1024.19
2016-12-19T08:31:58.518Z,1024.21
2016-12-19T08:32:58.497Z,1024.21
2016-12-19T08:33:58.482Z,1024.24
2016-12-19T08:34:58.466Z,1024.17
2016-12-19T08:35:58.449Z,1024.21
2016-12-19T08:36:58.432Z,1024.26
2016-12-19T08:37:58.417Z,1024.23
2016-12-19T08:38:58.400Z,1024.2
2016-12-19T08:39:58.384Z,1024.17
2016-12-19T08:40:58.367Z,1024.13
2016-12-19T08:41:58.350Z,1024.08
2016-12-19T08:42:58.335Z,1024.06
2016-12-19T08:43:58.320Z,1024.06
2016-12-19T08:44:58.303Z,1024.08
2016-12-19T08:45:58.285Z,1024.13
2016-12-19T08:46:58.272Z,1024.12
2016-12-19T08:47:58.253Z,1024.09
2016-12-19T08:48:58.240Z,1024.07
2016-12-19T08:49:58.220Z,1024.13
2016-12-19T08:50:58.204Z,1024.13
2016-12-19T08:51:58.188Z,1024.11
2016-12-19T08:52:58.174Z,1024.14
2016-12-19T08:53:58.154Z,1024.16
2016-12-19T08:54:58.136Z,1024.17
2016-12-19T08:55:58.121Z,1024.2
2016-12-19T08:56:58.104Z,1024.14
2016-12-19T08:57:58.087Z,1024.2
2016-12-19T08:58:58.071Z,1024.15
2016-12-19T08:59:58.059Z,1024.19
2016-12-19T09:00:58.042Z,1024.19
2016-12-19T09:01:58.027Z,1024.23
2016-12-19T09:02:58.010Z,1024.2
2016-12-19T09:03:57.993Z,1024.25
2016-12-19T09:04:57.972Z,1024.27
2016-12-19T09:05:57.955Z,1024.34
2016-12-19T09:06:57.942Z,1024.31
2016-12-19T09:07:57.924Z,1024.31
2016-12-19T09:08:57.909Z,1024.34
2016-12-19T09:09:57.889Z,1024.38
2016-12-19T09:10:57.872Z,1024.36
2016-12-19T09:11:57.855Z,1024.33
2016-12-19T09:12:57.835Z,1024.28
2016-12-19T09:13:57.822Z,1024.23
2016-12-19T09:14:57.795Z,1024.27
2016-12-19T09:15:57.775Z,1024.29
2016-12-19T09:16:57.756Z,1024.38
2016-12-19T09:17:57.735Z,1024.35
2016-12-19T09:18:57.715Z,1024.43
2016-12-19T09:19:57.694Z,1024.39
2016-12-19T09:20:57.675Z,1024.4
2016-12-19T09:21:57.654Z,1024.4
2016-12-19T09:22:57.635Z,1024.32
2016-12-19T09:23:57.613Z,1024.34
2016-12-19T09:24:57.592Z,1024.35
2016-12-19T09:25:57.577Z,1024.36
2016-12-19T09:26:57.552Z,1024.46
2016-12-19T09:27:57.530Z,1024.47
2016-12-19T09:28:57.511Z,1024.45
2016-12-19T09:29:57.491Z,1024.48
2016-12-19T09:30:57.469Z,1024.42
2016-12-19T09:31:57.452Z,1024.42
2016-12-19T09:32:57.429Z,1024.45
2016-12-19T09:33:57.405Z,1024.46
2016-12-19T09:34:57.385Z,1024.44
2016-12-19T09:35:57.363Z,1024.41
2016-12-19T09:36:57.342Z,1024.42
2016-12-19T09:37:57.322Z,1024.52
2016-12-19T09:38:57.303Z,1024.42
2016-12-19T09:39:57.278Z,1024.41
2016-12-19T09:40:57.256Z,1024.43
2016-12-19T09:41:57.246Z,1024.44
2016-12-19T09:42:57.219Z,1024.48
2016-12-19T09:43:57.196Z,1024.45
2016-12-19T09:44:57.175Z,1024.4
2016-12-19T09:45:57.155Z,1024.39
2016-12-19T09:46:57.134Z,1024.39
2016-12-19T09:47:57.113Z,1024.4
2016-12-19T09:48:57.099Z,1024.43
2016-12-19T09:49:57.073Z,1024.46
2016-12-19T09:50:57.052Z,1024.41
2016-12-19T09:51:57.030Z,1024.48
2016-12-19T09:52:57.011Z,1024.46
2016-12-19T09:53:56.990Z,1024.47
2016-12-19T09:54:56.969Z,1024.48
2016-12-19T09:55:56.950Z,1024.46
2016-12-19T09:56:56.927Z,1024.46
2016-12-19T09:57:56.908Z,1024.47
2016-12-19T09:58:56.892Z,1024.48
2016-12-19T09:59:56.868Z,1024.49
2016-12-19T10:00:56.846Z,1024.47
2016-12-19T10:01:56.825Z,1024.42
2016-12-19T10:02:56.807Z,1024.48
2016-12-19T10:03:56.785Z,1024.52
2016-12-19T10:04:56.764Z,1024.57
